Friedman Memorial Airport


Codes: KSUN/SUN
Name: Friedman Memorial Airport
City: Hailey
Country: United States
Elevation: 5318 ft.
Wikipedia:

Photos at Friedman Memorial Airport


   Photos courtesy of SpottingLog. You can add your own sightings and photos by signing up for a free trial today.



No photos found.

Weather at Friedman Memorial Airport


Time (UTC)DescriptionTempratureWindCloud coverageVisibilityPressureHumidity
13-Jun-2024 03:00Clear Sky23°C4 mph, NW0%10000m1012hPa19%
13-Jun-2024 06:00Clear Sky18°C9 mph, N0%10000m1014hPa22%
13-Jun-2024 09:00Clear Sky13°C9 mph, N1%10000m1015hPa24%
13-Jun-2024 12:00Clear Sky12°C7 mph, N6%10000m1015hPa27%
13-Jun-2024 15:00Broken Clouds21°C2 mph, NE52%10000m1014hPa23%
13-Jun-2024 18:00Scattered Clouds25°C7 mph, S30%10000m1012hPa22%
13-Jun-2024 21:00Clear Sky27°C7 mph, S0%10000m1010hPa22%
14-Jun-2024 00:00Scattered Clouds28°C7 mph, S31%10000m1008hPa22%
14-Jun-2024 03:00Scattered Clouds18°C2 mph, E31%10000m1010hPa63%
14-Jun-2024 06:00Few Clouds16°C9 mph, N18%10000m1011hPa58%
14-Jun-2024 09:00Overcast Clouds16°C9 mph, N90%10000m1010hPa51%
14-Jun-2024 12:00Broken Clouds15°C7 mph, N55%10000m1011hPa49%
14-Jun-2024 15:00Scattered Clouds22°C2 mph, W27%10000m1010hPa37%
14-Jun-2024 18:00Few Clouds25°C18 mph, SW14%10000m1010hPa25%
14-Jun-2024 21:00Scattered Clouds25°C20 mph, SW33%10000m1010hPa23%
15-Jun-2024 00:00Few Clouds23°C16 mph, W20%10000m1009hPa26%
15-Jun-2024 03:00Few Clouds17°C2 mph, W19%10000m1008hPa43%
15-Jun-2024 06:00Broken Clouds14°C7 mph, N59%10000m1010hPa44%
15-Jun-2024 09:00Broken Clouds13°C4 mph, N71%10000m1009hPa45%
15-Jun-2024 12:00Broken Clouds11°C4 mph, NW53%10000m1009hPa50%
15-Jun-2024 15:00Overcast Clouds17°C9 mph, SW90%10000m1007hPa35%
15-Jun-2024 18:00Overcast Clouds19°C22 mph, SW93%10000m1007hPa29%
15-Jun-2024 21:00Broken Clouds17°C25 mph, W66%10000m1008hPa32%
16-Jun-2024 00:00Broken Clouds15°C25 mph, W64%10000m1009hPa27%
16-Jun-2024 03:00Scattered Clouds9°C18 mph, NW28%10000m1012hPa36%
16-Jun-2024 06:00Few Clouds4°C7 mph, NW20%10000m1014hPa46%
16-Jun-2024 09:00Overcast Clouds3°C4 mph, NW91%10000m1015hPa49%
16-Jun-2024 12:00Overcast Clouds2°C4 mph, NW95%10000m1016hPa53%
16-Jun-2024 15:00Overcast Clouds8°C4 mph, SW87%10000m1013hPa35%
16-Jun-2024 18:00Broken Clouds13°C9 mph, SW78%10000m1010hPa25%
16-Jun-2024 21:00Overcast Clouds15°C13 mph, SW100%10000m1008hPa18%
17-Jun-2024 00:00Overcast Clouds15°C13 mph, W97%10000m1006hPa22%
17-Jun-2024 03:00Overcast Clouds10°C2 mph, NW99%10000m1004hPa38%
17-Jun-2024 06:00Overcast Clouds7°C7 mph, N98%10000m1006hPa36%
17-Jun-2024 09:00Light Rain6°C9 mph, NW100%10000m1007hPa56%
17-Jun-2024 12:00Light Snow5°C2 mph, W100%10000m1008hPa84%
17-Jun-2024 15:00Light Rain8°C11 mph, NW13%10000m1007hPa52%
17-Jun-2024 18:00Few Clouds12°C18 mph, NW24%10000m1006hPa29%
17-Jun-2024 21:00Broken Clouds14°C16 mph, NW78%10000m1008hPa27%
18-Jun-2024 00:00Broken Clouds14°C11 mph, NW79%10000m1009hPa26%